Kampville Court, Missouri
Current Conditions -  °F | °C
As of 6:54 PM on Tuesday 25 Nov 2014 (Local Time) from KSET Reporting Station
Clear Clear  
Wind Chill: 30°   Ceiling: Unl
Heat Index: 30°   Visibility: 10mi
Dew Point: 26°   Wind: 3mph
Humidity: 85%   Direction: 20°NNE
Pressure: 30.17"   Gusts: NA
Location:  38.8615°N, 90.4548°W
Report Text: KSET 260054Z AUTO 02003KT 10SM CLR M01/M03 A3017 RMK AO2 SLP221 T10111033
Loading
Personal Weather Stations






























Interactive Weather Map New forecast layout! Learn more

10-Day Weather Forecast

Advertisements
Track Severe Weather on mobile